Time;durP1;ratioP1;P1;durP2;ratioP2;P2;SDS_P1;SDS_P2;PMS_P1;PMS_P2;Temp;Humidity;BMP_temperature;BMP_pressure;BME280_temperature;BME280_humidity;BME280_pressure;Samples;Min_cycle;Max_cycle;Signal;HPM_P1;HPM_P2
2022/02/12 00:02:46;;;;;;;26.05;10.25;;;;;;;4.34;56.67;102650.03;4883664;28;120891;-83
2022/02/12 00:05:52;;;;;;;;;;;;;;;;;;;;;
2022/02/12 00:09:24;;;;;;;;;;;;;;;;;;;;;
2022/02/12 00:16:14;;;;;;;;;;;;;;;;;;;;;
2022/02/12 00:19:38;;;;;;;;;;;;;;;;;;;;;
2022/02/12 00:22:34;;;;;;;16.60;6.82;;;;;;;4.67;56.77;102690.25;4893155;23;119343;31
2022/02/12 00:28:53;;;;;;;;;;;;;;;;;;;;;
2022/02/12 00:33:20;;;;;;;;;;;;;;;;;;;;;
2022/02/12 00:37:12;;;;;;;19.58;6.60;;;;;;;4.30;56.70;102636.38;4881352;28;119426;-86
2022/02/12 00:45:18;;;;;;;;;;;;;;;;;;;;;
2022/02/12 00:48:58;;;;;;;;;;;;;;;;;;;;;
2022/02/12 00:52:33;;;;;;;;;;;;;;;;;;;;;
2022/02/12 00:56:15;;;;;;;23.02;8.75;;;;;;;4.63;56.68;102676.59;4808550;28;119362;-86
2022/02/12 00:59:28;;;;;;;;;;;;;;;;;;;;;
2022/02/12 01:02:51;;;;;;;;;;;;;;;;;;;;;
2022/02/12 01:06:11;;;;;;;27.85;13.85;;;;;;;4.86;57.10;102709.25;4853141;28;120570;-87
2022/02/12 01:09:41;;;;;;;;;;;;;;;;;;;;;
2022/02/12 01:13:09;;;;;;;17.05;4.05;;;;;;;4.45;57.12;102677.41;4851220;29;119507;-87
2022/02/12 01:16:18;;;;;;;12.93;4.23;;;;;;;4.70;56.66;102715.91;4836869;29;119916;-86
2022/02/12 01:23:37;;;;;;;12.82;4.07;;;;;;;4.17;57.13;102640.38;4865874;28;119765;-86
2022/02/12 01:26:56;;;;;;;;;;;;;;;;;;;;;
2022/02/12 01:30:32;;;;;;;15.73;3.95;;;;;;;4.44;57.54;102659.50;4899873;28;119534;-85
2022/02/12 01:34:07;;;;;;;;;;;;;;;;;;;;;
2022/02/12 01:37:29;;;;;;;;;;;;;;;;;;;;;
2022/02/12 01:40:36;;;;;;;15.57;3.90;;;;;;;4.91;57.11;102722.53;4883102;28;119279;-86
2022/02/12 01:44:16;;;;;;;15.68;3.90;;;;;;;4.66;56.60;102680.50;4857668;28;119733;-86
2022/02/12 01:47:12;;;;;;;;;;;;;;;;;;;;;
2022/02/12 01:50:16;;;;;;;10.80;2.90;;;;;;;4.99;56.66;102719.97;4877522;28;119148;-86
2022/02/12 01:53:31;;;;;;;11.77;3.20;;;;;;;4.61;56.75;102651.69;4870674;28;121971;-87
2022/02/12 01:57:12;;;;;;;;;;;;;;;;;;;;;
2022/02/12 02:07:55;;;;;;;;;;;;;;;;;;;;;
2022/02/12 02:12:27;;;;;;;;;;;;;;;;;;;;;
2022/02/12 02:27:53;;;;;;;;;;;;;;;;;;;;;
2022/02/12 02:32:41;;;;;;;;;;;;;;;;;;;;;
2022/02/12 02:47:53;;;;;;;;;;;;;;;;;;;;;
2022/02/12 02:57:40;;;;;;;;;;;;;;;;;;;;;
2022/02/12 03:00:55;;;;;;;;;;;;;;;;;;;;;
2022/02/12 03:04:16;;;;;;;11.85;2.72;;;;;;;4.60;57.59;102565.06;4842523;28;121152;-84
2022/02/12 03:11:21;;;;;;;;;;;;;;;;;;;;;
2022/02/12 03:14:57;;;;;;;15.95;2.78;;;;;;;5.05;57.52;102626.81;4882715;28;121011;-85
2022/02/12 03:17:46;;;;;;;13.10;2.97;;;;;;;4.74;57.80;102581.63;4879010;28;119838;-84
2022/02/12 03:21:08;;;;;;;;;;;;;;;;;;;;;
2022/02/12 03:24:28;;;;;;;;;;;;;;;;;;;;;
2022/02/12 03:27:57;;;;;;;;;;;;;;;;;;;;;
2022/02/12 03:31:15;;;;;;;;;;;;;;;;;;;;;
2022/02/12 03:34:14;;;;;;;;;;;;;;;;;;;;;
2022/02/12 03:37:52;;;;;;;13.07;3.22;;;;;;;4.46;57.87;102530.28;4884810;28;119573;-88
2022/02/12 03:44:59;;;;;;;10.45;2.45;;;;;;;4.85;57.83;102601.63;4865032;28;119735;-85
2022/02/12 03:47:37;;;;;;;13.70;2.83;;;;;;;4.85;58.01;102608.97;4888811;28;119460;-85
2022/02/12 03:50:37;;;;;;;;;;;;;;;;;;;;;
2022/02/12 03:53:37;;;;;;;11.52;3.20;;;;;;;4.84;58.13;102594.59;4898331;28;122807;-85
2022/02/12 03:57:11;;;;;;;;;;;;;;;;;;;;;
2022/02/12 04:00:34;;;;;;;;;;;;;;;4.82;57.90;102590.69;4875320;28;119358;-86
2022/02/12 04:10:43;;;;;;;;;;;;;;;;;;;;;
2022/02/12 04:13:30;;;;;;;;;;;;;;;;;;;;;
2022/02/12 04:17:09;;;;;;;;;;;;;;;;;;;;;
2022/02/12 04:20:22;;;;;;;;;;;;;;;;;;;;;
2022/02/12 04:23:35;;;;;;;13.20;3.22;;;;;;;4.79;58.64;102559.56;4892645;28;120267;-86
2022/02/12 04:26:52;;;;;;;15.57;3.15;;;;;;;4.78;58.28;102585.19;4898330;28;119385;-87
2022/02/12 04:30:22;;;;;;;;;;;;;;;;;;;;;
2022/02/12 04:34:06;;;;;;;15.20;2.90;;;;;;;4.72;58.25;102558.66;4871252;28;120404;-86
2022/02/12 04:37:31;;;;;;;14.10;3.25;;;;;;;4.44;58.49;102502.69;4886600;28;120305;-85
2022/02/12 04:41:04;;;;;;;;;;;;;;;;;;;;;
2022/02/12 04:48:13;;;;;;;14.73;3.55;;;;;;;4.68;58.64;102509.66;4890906;28;121302;-87
2022/02/12 04:51:46;;;;;;;;;;;;;;;;;;;;;
2022/02/12 04:55:51;;;;;;;;;;;;;;;;;;;;;
2022/02/12 04:59:42;;;;;;;;;;;;;;;;;;;;;
2022/02/12 05:02:56;;;;;;;12.65;3.45;;;;;;;5.11;58.86;102515.72;4885451;28;120251;-86
2022/02/12 05:06:47;;;;;;;;;;;;;;;;;;;;;
2022/02/12 05:14:10;;;;;;;18.73;3.85;;;;;;;5.36;58.18;102502.47;4878377;28;119609;-86
2022/02/12 05:17:54;;;;;;;;;;;;;;;;;;;;;
2022/02/12 05:21:34;;;;;;;;;;;;;;;;;;;;;
2022/02/12 05:32:58;;;;;;;;;;;;;;;;;;;;;
2022/02/12 05:40:26;;;;;;;16.20;3.55;;;;;;;5.57;57.95;102459.16;4877953;28;119481;-87
2022/02/12 05:43:35;;;;;;;;;;;;;;;;;;;;;
2022/02/12 05:47:03;;;;;;;;;;;;;;;;;;;;;
2022/02/12 05:50:47;;;;;;;11.07;2.85;;;;;;;5.43;57.74;102423.59;4896341;28;119167;-87
2022/02/12 05:54:22;;;;;;;;;;;;;;;;;;;;;
2022/02/12 05:57:36;;;;;;;;;;;;;;;;;;;;;
2022/02/12 06:01:13;;;;;;;14.43;2.63;;;;;;;5.89;57.01;102456.75;4890314;28;119443;-87
2022/02/12 06:12:14;;;;;;;;;;;;;;;;;;;;;
2022/02/12 06:16:01;;;;;;;;;;;;;;;;;;;;;
2022/02/12 06:26:24;;;;;;;;;;;;;;;;;;;;;
2022/02/12 06:29:20;;;;;;;12.52;3.08;;;;;;;5.80;56.56;102434.50;4871001;28;120124;-86
2022/02/12 06:33:01;;;;;;;;;;;;;;;;;;;;;
2022/02/12 06:36:43;;;;;;;14.02;2.90;;;;;;;5.78;56.16;102434.09;4875517;28;120257;-86
2022/02/12 06:40:49;;;;;;;;;;;;;;;;;;;;;
2022/02/12 06:43:53;;;;;;;;;;;;;;;;;;;;;
2022/02/12 06:46:52;;;;;;;10.45;2.40;;;;;;;5.51;56.59;102396.09;4881485;28;118524;-86
2022/02/12 06:50:32;;;;;;;;;;;;;;;;;;;;;
2022/02/12 06:53:49;;;;;;;16.02;3.38;;;;;;;5.80;56.39;102437.22;4883020;28;119637;-86
2022/02/12 06:57:11;;;;;;;15.88;2.85;;;;;;;5.46;55.98;102391.00;4861149;28;119828;-86
2022/02/12 07:00:59;;;;;;;9.93;3.03;;;;;;;5.75;56.35;102435.63;4866402;28;119309;-83
2022/02/12 07:04:13;;;;;;;;;;;;;;;;;;;;;
2022/02/12 07:07:42;;;;;;;;;;;;;;;;;;;;;
2022/02/12 07:11:32;;;;;;;;;;;;;;;;;;;;;
2022/02/12 07:14:56;;;;;;;;;;;;;;;;;;;;;
2022/02/12 07:17:50;;;;;;;;;;;;;;;;;;;;;
2022/02/12 07:24:52;;;;;;;;;;;;;;;;;;;;;
2022/02/12 07:28:30;;;;;;;;;;;;;;;;;;;;;
2022/02/12 07:32:25;;;;;;;;;;;;;;;;;;;;;
2022/02/12 07:35:33;;;;;;;17.38;3.28;;;;;;;5.46;56.18;102344.75;4877641;28;120128;-85
2022/02/12 07:46:55;;;;;;;14.95;4.50;;;;;;;5.91;56.66;102401.94;4836599;28;121604;-87
2022/02/12 07:50:07;;;;;;;;;;;;;;;;;;;;;
2022/02/12 08:01:37;;;;;;;;;;;;;;;;;;;;;
2022/02/12 08:39:05;;;;;;;;;;;;;;;;;;;;;
2022/02/12 08:42:52;;;;;;;;;;;;;;;;;;;;;
2022/02/12 09:09:02;;;;;;;;;;;;;;;;;;;;;
2022/02/12 09:12:20;;;;;;;16.85;4.60;;;;;;;6.48;58.33;102302.28;4847529;29;118486;-87
2022/02/12 09:19:35;;;;;;;;;;;;;;;;;;;;;
2022/02/12 09:23:32;;;;;;;;;;;;;;;;;;;;;
2022/02/12 09:27:36;;;;;;;;;;;;;;;;;;;;;
2022/02/12 09:31:31;;;;;;;;;;;;;;;;;;;;;
2022/02/12 09:35:24;;;;;;;;;;;;;;;;;;;;;
2022/02/12 09:39:43;;;;;;;;;;;;;;;;;;;;;
2022/02/12 09:53:38;;;;;;;24.05;5.18;;;;;;;7.79;58.75;102309.97;4871100;28;119851;-84
2022/02/12 09:56:33;;;;;;;22.05;5.22;;;;;;;7.40;58.61;102230.78;4881605;28;119129;-84
2022/02/12 10:00:17;;;;;;;16.48;4.88;;;;;;;7.89;58.05;102298.25;4865301;28;119638;-83
2022/02/12 10:03:39;;;;;;;;;;;;;;;;;;;;;
2022/02/12 10:24:30;;;;;;;23.98;5.85;;;;;;;8.20;58.11;102249.38;726008;26;119724;-84
2022/02/12 10:27:26;;;;;;;18.92;5.55;;;;;;;8.17;56.00;102231.03;4868859;28;119732;-84
2022/02/12 10:30:07;;;;;;;16.05;5.10;;;;;;;8.07;57.27;102199.06;4860135;28;119289;-82
2022/02/12 10:33:05;;;;;;;22.75;5.20;;;;;;;8.15;56.31;102195.13;4871568;28;120905;-85
2022/02/12 10:36:19;;;;;;;;;;;;;;;;;;;;;
2022/02/12 10:39:37;;;;;;;;;;;;;;;;;;;;;
2022/02/12 10:42:43;;;;;;;19.33;5.47;;;;;;;8.77;54.56;102233.53;4983322;28;119709;-84
2022/02/12 10:45:51;;;;;;;;;;;;;;;;;;;;;
2022/02/12 10:48:26;;;;;;;19.85;5.35;;;;;;;8.97;54.94;102203.69;4975934;28;119445;-81
2022/02/12 10:51:24;;;;;;;;;;;;;;;;;;;;;
2022/02/12 10:57:28;;;;;;;;;;;;;;;;;;;;;
2022/02/12 11:00:09;;;;;;;17.20;5.78;;;;;;;9.39;53.83;102207.28;4978848;28;119408;-82
2022/02/12 11:03:09;;;;;;;16.40;5.47;;;;;;;9.62;52.65;102214.88;4986312;28;119360;-83
2022/02/12 11:06:05;;;;;;;21.55;5.75;;;;;;;9.47;52.30;102195.09;4968582;28;120751;-85
2022/02/12 11:08:42;;;;;;;22.67;6.07;;;;;;;9.41;53.27;102169.28;4981848;28;120148;-84
2022/02/12 11:11:47;;;;;;;23.30;5.97;;;;;;;9.58;52.93;102182.06;4973369;28;120279;-84
2022/02/12 11:14:37;;;;;;;;;;;;;;;;;;;;;
2022/02/12 11:17:33;;;;;;;21.10;5.68;;;;;;;9.46;52.64;102111.31;5009093;27;120260;-80
2022/02/12 11:20:35;;;;;;;;;;;;;;;;;;;;;
2022/02/12 11:23:18;;;;;;;19.98;6.68;;;;;;;10.03;51.96;102184.69;4981173;28;118424;-82
2022/02/12 11:26:12;;;;;;;20.40;6.13;;;;;;;9.93;51.95;102160.91;4969030;28;121838;-84
2022/02/12 11:29:08;;;;;;;;;;;;;;;;;;;;;
2022/02/12 11:32:15;;;;;;;19.77;6.07;;;;;;;10.08;51.69;102165.06;4970745;28;121281;-81
2022/02/12 11:35:11;;;;;;;17.70;6.40;;;;;;;9.78;50.96;102119.22;4986443;28;120170;-83
2022/02/12 11:37:42;;;;;;;21.23;6.40;;;;;;;9.82;52.56;102119.94;4979848;28;118606;-85
2022/02/12 11:40:24;;;;;;;17.85;6.20;;;;;;;10.13;53.07;102159.09;4982986;28;120417;-85
2022/02/12 11:43:04;;;;;;;26.55;6.28;;;;;;;9.71;52.32;102097.38;4978451;28;121518;-83
2022/02/12 11:45:46;;;;;;;18.92;6.18;;;;;;;9.96;52.59;102116.25;4970045;28;118601;-82
2022/02/12 11:48:15;;;;;;;17.48;6.20;;;;;;;10.31;52.86;102153.44;4964462;28;121819;-84
2022/02/12 11:50:55;;;;;;;24.02;6.05;;;;;;;10.30;52.74;102151.88;4951232;28;122843;-85
2022/02/12 11:53:54;;;;;;;24.52;6.47;;;;;;;9.90;51.14;102087.72;4973050;28;119093;-84
2022/02/12 11:56:20;;;;;;;23.85;5.97;;;;;;;10.28;52.10;102132.31;4964458;28;122799;-82
2022/02/12 11:58:46;;;;;;;21.80;6.75;;;;;;;10.33;51.70;102120.88;4951757;28;118618;-84
2022/02/12 12:01:33;;;;;;;20.52;6.43;;;;;;;10.39;51.37;102122.72;4934421;28;121685;-86
2022/02/12 12:04:11;;;;;;;15.95;5.80;;;;;;;10.40;50.40;102113.31;4940780;28;120079;-87
2022/02/12 12:07:01;;;;;;;19.65;5.88;;;;;;;9.90;51.33;102041.91;4943587;28;119569;-85
2022/02/12 12:09:33;;;;;;;19.30;5.97;;;;;;;10.18;50.85;102095.59;4949990;28;119686;-86
2022/02/12 12:12:14;;;;;;;17.67;5.90;;;;;;;10.29;49.87;102104.47;4935027;28;120042;-87
2022/02/12 12:14:40;;;;;;;18.95;6.30;;;;;;;10.12;50.61;102083.53;4951335;28;118400;-84
2022/02/12 12:17:07;;;;;;;21.70;5.70;;;;;;;9.82;49.43;102043.97;4951606;28;119421;-84
2022/02/12 12:19:41;;;;;;;17.58;5.72;;;;;;;9.85;51.35;102037.66;4950769;28;118426;-82
2022/02/12 12:22:11;;;;;;;18.65;6.22;;;;;;;9.94;50.32;102034.44;4938828;28;120961;-83
2022/02/12 12:24:42;;;;;;;20.52;6.40;;;;;;;9.99;51.85;102030.47;4946218;28;120150;-85
2022/02/12 12:27:10;;;;;;;24.15;6.88;;;;;;;9.80;53.12;102009.97;4951741;28;119376;-86
2022/02/12 12:32:23;;;;;;;21.15;6.82;;;;;;;10.16;50.45;102040.38;4947121;28;122560;-85
2022/02/12 12:35:07;;;;;;;21.75;6.90;;;;;;;10.04;49.22;102025.28;4945668;28;119465;-86
2022/02/12 12:37:54;;;;;;;23.38;6.93;;;;;;;10.26;49.81;102052.41;4933766;28;122036;-85
2022/02/12 12:40:32;;;;;;;22.13;7.10;;;;;;;9.98;49.77;102005.00;4955442;28;123871;-87
2022/02/12 12:43:08;;;;;;;20.60;6.93;;;;;;;10.37;49.59;102051.06;4948362;28;121897;-86
2022/02/12 12:45:41;;;;;;;17.98;6.22;;;;;;;10.07;50.36;102008.00;4963548;28;120106;-86
2022/02/12 12:48:35;;;;;;;26.55;6.43;;;;;;;10.10;49.88;101985.22;4933452;28;119802;-87
2022/02/12 12:51:01;;;;;;;21.45;6.28;;;;;;;10.12;49.17;101988.31;4931275;28;121945;-87
2022/02/12 12:53:27;;;;;;;18.60;6.25;;;;;;;10.27;51.38;102001.88;4945650;28;120177;-86
2022/02/12 12:55:52;;;;;;;18.83;6.07;;;;;;;10.56;49.75;102037.84;4914573;28;120049;-86
2022/02/12 12:58:18;;;;;;;21.15;6.00;;;;;;;10.63;50.06;102041.22;4945877;28;119841;-84
2022/02/12 13:00:44;;;;;;;18.98;5.95;;;;;;;10.23;49.17;101981.94;4912552;28;123162;-85
2022/02/12 13:03:10;;;;;;;16.42;5.75;;;;;;;10.27;48.37;101997.16;4928374;28;119621;-87
2022/02/12 13:05:36;;;;;;;18.73;6.47;;;;;;;10.48;49.12;102030.91;4941575;28;119933;-87
2022/02/12 13:08:10;;;;;;;21.48;6.00;;;;;;;10.02;50.69;101961.09;4942941;28;120101;-87
2022/02/12 13:10:40;;;;;;;20.17;6.20;;;;;;;10.22;49.48;101996.84;4947596;28;119458;-86
2022/02/12 13:13:11;;;;;;;17.33;6.05;;;;;;;10.23;49.01;102007.41;4941973;28;120110;-86
2022/02/12 13:15:39;;;;;;;18.85;6.47;;;;;;;9.93;50.76;101950.63;4943402;28;120941;-86
2022/02/12 13:18:07;;;;;;;21.00;6.53;;;;;;;10.18;49.75;101985.91;4929763;28;122155;-86
2022/02/12 13:20:34;;;;;;;23.65;6.28;;;;;;;10.02;49.29;101950.13;4930230;28;123512;-86
2022/02/12 13:23:06;;;;;;;21.13;6.47;;;;;;;9.93;48.71;101947.13;4950085;28;120005;-85
2022/02/12 13:25:48;;;;;;;23.77;6.47;;;;;;;10.22;49.52;101981.19;4945753;28;122919;-87
2022/02/12 13:28:16;;;;;;;17.98;6.50;;;;;;;9.87;48.63;101937.81;4950455;28;119514;-88
2022/02/12 13:30:48;;;;;;;22.42;6.25;;;;;;;10.12;53.05;101974.63;4915728;28;121830;-85
2022/02/12 13:33:25;;;;;;;24.35;7.00;;;;;;;10.19;49.73;101970.25;4943489;28;123102;-86
2022/02/12 13:35:56;;;;;;;18.67;6.45;;;;;;;10.03;49.00;101960.66;4963934;28;119638;-87
2022/02/12 13:38:29;;;;;;;19.27;6.47;;;;;;;9.80;48.56;101928.53;4930482;28;120271;-85
2022/02/12 13:40:55;;;;;;;21.57;7.37;;;;;;;10.00;48.44;101963.47;4946212;28;121278;-84
2022/02/12 13:43:28;;;;;;;20.23;5.97;;;;;;;9.96;48.63;101960.78;4941049;28;119178;-82
2022/02/12 13:45:57;;;;;;;26.48;7.43;;;;;;;9.66;48.82;101914.25;4965257;28;119746;-81
2022/02/12 13:48:40;;;;;;;21.15;7.30;;;;;;;9.93;48.54;101958.84;4967143;28;120234;-83
2022/02/12 13:51:15;;;;;;;20.20;7.13;;;;;;;9.57;49.08;101894.81;4970737;28;119858;-84
2022/02/12 13:53:48;;;;;;;20.25;6.57;;;;;;;9.78;50.02;101917.19;4952161;28;119947;-82
2022/02/12 13:56:14;;;;;;;22.77;7.18;;;;;;;9.79;49.10;101904.28;4968650;28;119479;-84
2022/02/12 13:58:42;;;;;;;20.52;6.75;;;;;;;9.95;48.84;101933.78;4965765;28;120208;-83
2022/02/12 14:01:08;;;;;;;18.52;7.15;;;;;;;9.71;50.37;101897.34;4971804;28;121750;-83
2022/02/12 14:03:40;;;;;;;16.38;7.38;;;;;;;10.12;50.12;101955.44;4981484;28;118531;-83
2022/02/12 14:06:17;;;;;;;16.90;6.30;;;;;;;9.70;49.64;101898.53;4969102;28;119285;-82
2022/02/12 14:08:43;;;;;;;17.27;6.63;;;;;;;9.74;48.78;101908.25;4975178;28;121755;-84
2022/02/12 14:11:11;;;;;;;17.90;6.75;;;;;;;9.67;48.87;101894.66;4973792;28;118988;-83
2022/02/12 14:13:37;;;;;;;25.40;7.68;;;;;;;9.71;49.35;101900.88;4962057;28;123351;-83
2022/02/12 14:16:03;;;;;;;20.10;6.70;;;;;;;9.62;48.22;101873.19;4972979;28;119423;-84
2022/02/12 14:18:31;;;;;;;19.08;6.57;;;;;;;9.86;48.74;101915.13;4953263;28;121806;-84
2022/02/12 14:20:57;;;;;;;20.05;7.35;;;;;;;9.57;48.80;101859.97;4958071;28;122810;-82
2022/02/12 14:23:23;;;;;;;22.23;6.65;;;;;;;9.70;48.91;101873.84;4962264;28;119363;-85
2022/02/12 14:25:49;;;;;;;21.65;6.55;;;;;;;10.08;49.02;101932.78;4967715;28;121867;-83
2022/02/12 14:28:15;;;;;;;16.65;6.53;;;;;;;9.60;48.86;101853.66;4968542;28;119925;-83
2022/02/12 14:30:44;;;;;;;17.95;6.45;;;;;;;9.57;49.17;101842.78;4953010;28;119416;-83
2022/02/12 14:33:10;;;;;;;21.48;6.00;;;;;;;9.79;49.31;101887.81;4957952;28;123859;-82
2022/02/12 14:35:37;;;;;;;19.95;6.75;;;;;;;9.56;48.62;101844.75;4973589;28;119323;-83
2022/02/12 14:38:03;;;;;;;19.52;6.18;;;;;;;9.68;48.92;101865.28;4972951;28;119001;-83
2022/02/12 14:40:31;;;;;;;17.20;6.32;;;;;;;9.51;48.40;101859.69;4965681;28;122661;-83
2022/02/12 14:42:58;;;;;;;18.67;6.50;;;;;;;9.47;49.20;101847.22;4973537;28;118572;-84
2022/02/12 14:45:24;;;;;;;17.83;6.68;;;;;;;9.37;48.33;101840.72;4957574;28;119871;-83
2022/02/12 14:47:49;;;;;;;27.15;6.88;;;;;;;9.47;48.88;101844.50;4962738;28;120381;-84
2022/02/12 14:50:16;;;;;;;21.77;7.57;;;;;;;9.28;50.17;101813.06;4973219;28;118496;-84
2022/02/12 14:52:46;;;;;;;21.75;7.20;;;;;;;9.37;48.56;101837.19;4961791;28;122528;-83
2022/02/12 14:55:13;;;;;;;17.25;6.57;;;;;;;9.31;49.41;101820.47;4985687;28;119159;-84
2022/02/12 14:57:40;;;;;;;19.05;6.57;;;;;;;9.18;48.96;101805.78;4975309;28;119364;-84
2022/02/12 15:00:10;;;;;;;23.75;7.45;;;;;;;9.33;49.19;101833.75;4956199;28;123853;-85
2022/02/12 15:02:40;;;;;;;27.23;8.93;;;;;;;9.19;48.49;101810.84;4973575;28;119816;-84
2022/02/12 15:05:09;;;;;;;22.83;7.82;;;;;;;9.65;48.57;101872.38;4957580;28;122045;-84
2022/02/12 15:07:38;;;;;;;16.95;6.32;;;;;;;9.48;48.38;101846.03;4968213;28;122157;-84
2022/02/12 15:10:09;;;;;;;21.17;8.40;;;;;;;9.57;47.56;101854.50;4989619;28;119060;-84
2022/02/12 15:12:37;;;;;;;22.65;7.38;;;;;;;9.33;48.70;101817.31;4983576;28;121700;-83
2022/02/12 15:15:04;;;;;;;19.75;6.43;;;;;;;9.43;48.06;101835.53;4956833;28;119256;-85
2022/02/12 15:17:30;;;;;;;19.55;6.57;;;;;;;9.07;47.84;101786.78;4972470;28;119235;-84
2022/02/12 15:19:57;;;;;;;16.95;6.25;;;;;;;9.20;47.62;101804.19;4939345;28;122384;-86
2022/02/12 15:22:25;;;;;;;19.08;6.85;;;;;;;9.00;47.83;101777.91;4940522;28;119287;-83
2022/02/12 15:24:51;;;;;;;19.58;6.32;;;;;;;9.00;48.36;101769.69;4959874;28;120628;-84
2022/02/12 15:27:20;;;;;;;15.65;6.50;;;;;;;8.97;48.22;101768.53;4966487;28;119349;-83
2022/02/12 15:29:49;;;;;;;17.02;6.35;;;;;;;8.94;48.22;101758.41;4940466;28;119269;-85
2022/02/12 15:32:18;;;;;;;17.23;6.18;;;;;;;9.12;48.70;101786.31;4969951;28;121403;-85
2022/02/12 15:34:47;;;;;;;19.75;6.25;;;;;;;8.88;49.85;101751.88;4963032;28;123455;-84
2022/02/12 15:37:18;;;;;;;17.05;5.63;;;;;;;9.01;48.91;101769.28;4974659;28;120569;-85
2022/02/12 15:39:52;;;;;;;17.77;5.60;;;;;;;8.83;48.70;101757.81;4960374;28;121247;-85
2022/02/12 15:42:18;;;;;;;14.35;5.43;;;;;;;8.94;48.99;101774.84;5001835;28;119379;-84
2022/02/12 15:44:47;;;;;;;14.05;5.32;;;;;;;9.02;48.83;101784.50;4973445;28;121830;-84
2022/02/12 15:47:13;;;;;;;23.20;6.57;;;;;;;8.73;48.24;101747.75;4973036;28;120252;-85
2022/02/12 15:49:48;;;;;;;17.00;5.75;;;;;;;8.83;48.39;101757.81;4993706;28;119601;-84
2022/02/12 15:52:14;;;;;;;20.27;6.63;;;;;;;9.10;48.86;101794.16;4959936;28;121103;-85
2022/02/12 15:54:43;;;;;;;17.38;6.43;;;;;;;8.86;48.54;101763.22;4972524;28;123267;-84
2022/02/12 15:57:11;;;;;;;17.25;6.07;;;;;;;8.64;49.27;101728.34;4946695;28;119235;-82
2022/02/12 15:59:37;;;;;;;14.57;6.13;;;;;;;8.75;48.41;101745.38;4953042;28;123231;-84
2022/02/12 16:02:03;;;;;;;14.75;5.75;;;;;;;8.71;49.02;101745.44;4976047;28;118501;-82
2022/02/12 16:04:33;;;;;;;16.60;5.25;;;;;;;8.50;49.21;101719.13;5293355;22;121632;31
2022/02/12 16:06:59;;;;;;;16.40;5.70;;;;;;;8.55;48.79;101726.13;5356834;22;122855;-88
2022/02/12 16:09:28;;;;;;;19.75;5.57;;;;;;;8.48;49.01;101716.03;4940852;28;119389;-85
2022/02/12 16:11:55;;;;;;;14.32;5.05;;;;;;;8.68;49.37;101735.31;4944330;28;118992;-86
2022/02/12 16:14:24;;;;;;;21.80;5.78;;;;;;;8.47;48.51;101705.53;4957243;28;119924;-85
2022/02/12 16:16:50;;;;;;;19.65;5.90;;;;;;;8.48;49.31;101705.09;4938902;28;119096;-86
2022/02/12 16:19:24;;;;;;;19.25;6.30;;;;;;;8.30;49.06;101691.66;4940497;28;121926;-85
2022/02/12 16:21:53;;;;;;;20.50;6.75;;;;;;;8.59;48.96;101744.03;4953198;28;119437;-84
2022/02/12 16:24:27;;;;;;;18.60;5.93;;;;;;;8.64;49.57;101759.22;4899366;28;122156;-85
2022/02/12 16:27:01;;;;;;;18.40;6.15;;;;;;;8.64;48.63;101772.13;4952557;28;121731;-85
2022/02/12 16:29:33;;;;;;;18.23;5.97;;;;;;;8.35;49.54;101717.78;4955091;28;118888;-85
2022/02/12 16:32:12;;;;;;;15.35;5.60;;;;;;;8.11;50.00;101696.97;4943901;28;119252;-86
2022/02/12 16:34:47;;;;;;;21.88;6.68;;;;;;;8.36;49.28;101733.00;4957007;28;121556;-86
2022/02/12 16:37:33;;;;;;;19.13;5.82;;;;;;;8.08;49.68;101692.31;4923022;28;119429;-84
2022/02/12 16:40:04;;;;;;;16.10;5.78;;;;;;;8.12;49.92;101703.97;4939526;28;121777;-85
2022/02/12 16:42:33;;;;;;;15.25;6.10;;;;;;;8.18;49.58;101716.78;4944293;28;120875;-85
2022/02/12 16:45:14;;;;;;;;;;;;;;;;;;;;;
2022/02/12 16:47:41;;;;;;;16.50;5.75;;;;;;;7.87;49.71;101664.06;4966583;28;118738;-85
2022/02/12 16:50:10;;;;;;;16.83;6.07;;;;;;;7.85;49.22;101665.66;4936437;28;119343;-85
2022/02/12 16:52:42;;;;;;;19.73;5.90;;;;;;;7.81;49.43;101662.97;4953091;28;119512;-85
2022/02/12 16:55:09;;;;;;;22.52;5.30;;;;;;;7.82;48.84;101659.03;4951877;28;122071;-85
2022/02/12 16:57:48;;;;;;;17.23;5.82;;;;;;;7.93;50.06;101683.50;4920298;28;120195;-85
2022/02/12 17:00:19;;;;;;;18.02;5.78;;;;;;;7.80;49.82;101666.06;4955879;28;121026;-85
2022/02/12 17:03:25;;;;;;;16.08;5.80;;;;;;;8.16;50.17;101724.59;4955732;28;123028;-82
2022/02/12 17:06:11;;;;;;;17.30;5.55;;;;;;;7.62;49.60;101658.84;4936078;28;121963;-85
2022/02/12 17:08:38;;;;;;;19.40;6.60;;;;;;;8.08;49.99;101733.31;4950482;28;119847;-86
2022/02/12 17:11:29;;;;;;;;;;;;;;;;;;;;;
2022/02/12 17:14:01;;;;;;;;;;;;;;;8.01;49.36;101732.19;4934482;28;119052;-85
2022/02/12 17:16:28;;;;;;;22.83;6.15;;;;;;;7.80;50.05;101699.63;4957218;28;122460;-86
2022/02/12 17:19:00;;;;;;;16.25;6.10;;;;;;;8.05;50.35;101725.94;4953477;28;119106;-85
2022/02/12 17:21:45;;;;;;;20.35;7.00;;;;;;;8.07;49.79;101729.03;4919200;28;120743;-86
2022/02/12 17:24:35;;;;;;;18.80;6.38;;;;;;;7.77;50.14;101686.78;4934860;28;121369;-86
2022/02/12 17:27:05;;;;;;;23.40;7.03;;;;;;;7.68;50.16;101661.91;4956702;28;119246;-86
2022/02/12 17:29:41;;;;;;;16.95;6.40;;;;;;;7.74;49.73;101671.22;4920350;28;122713;-86
2022/02/12 17:32:22;;;;;;;18.80;6.70;;;;;;;8.00;50.05;101724.41;4933336;28;119439;-85
2022/02/12 17:34:52;;;;;;;18.60;5.55;;;;;;;7.66;49.82;101665.06;4919562;28;118518;-86
2022/02/12 17:37:22;;;;;;;14.13;6.25;;;;;;;7.76;49.41;101687.19;4952741;28;119531;-86
2022/02/12 17:39:51;;;;;;;21.27;6.55;;;;;;;7.50;49.72;101653.91;4951148;28;118959;-83
2022/02/12 17:42:27;;;;;;;15.15;6.18;;;;;;;7.28;49.84;101620.56;4948015;28;121018;-87
2022/02/12 17:45:04;;;;;;;22.98;6.68;;;;;;;7.29;50.11;101624.84;4949610;28;120113;-85
2022/02/12 17:47:51;;;;;;;18.85;7.13;;;;;;;7.71;50.05;101710.25;4927969;28;119399;-85
2022/02/12 17:50:21;;;;;;;18.98;7.05;;;;;;;7.66;50.14;101697.81;4969579;28;119263;-86
2022/02/12 17:52:48;;;;;;;21.25;7.70;;;;;;;7.59;51.22;101703.38;4955562;28;119319;-86
2022/02/12 17:55:20;;;;;;;21.00;8.35;;;;;;;7.58;50.80;101704.53;4946289;28;118400;-86
2022/02/12 17:58:03;;;;;;;21.23;7.88;;;;;;;7.56;51.50;101692.44;4938105;28;123392;-86
2022/02/12 18:00:35;;;;;;;18.13;7.35;;;;;;;7.52;51.58;101694.44;4918530;28;119457;-86
2022/02/12 18:03:28;;;;;;;19.05;7.45;;;;;;;7.56;51.59;101697.91;4942685;28;119224;-86
2022/02/12 18:06:05;;;;;;;21.30;7.88;;;;;;;7.09;51.53;101629.31;4922118;28;120976;-85
2022/02/12 18:09:35;;;;;;;21.67;8.02;;;;;;;7.47;51.46;101678.50;4941533;28;119993;-85
2022/02/12 18:11:31;;;;;;;20.20;8.30;;;;;;;7.25;51.50;101642.44;4941844;28;119390;-86
2022/02/12 18:13:58;;;;;;;23.20;8.18;;;;;;;7.55;51.82;101683.47;4935271;28;119438;-86
2022/02/12 18:16:39;;;;;;;22.48;8.73;;;;;;;7.35;52.05;101647.81;4913259;28;120212;-86
2022/02/12 18:19:28;;;;;;;18.00;8.50;;;;;;;7.48;51.77;101666.41;4914964;28;119233;-86
2022/02/12 18:22:04;;;;;;;18.33;7.25;;;;;;;7.18;51.89;101626.91;4964619;28;119464;-86
2022/02/12 18:24:43;;;;;;;18.27;8.33;;;;;;;6.94;51.67;101606.84;4947267;28;120387;-86
2022/02/12 18:27:19;;;;;;;22.83;9.20;;;;;;;7.34;51.93;101651.72;4962160;28;120962;-86
2022/02/12 18:30:17;;;;;;;22.60;8.77;;;;;;;7.08;51.67;101616.84;4918930;28;119572;-87
2022/02/12 18:33:14;;;;;;;17.30;8.00;;;;;;;7.24;52.38;101640.88;4929567;28;119753;-86
2022/02/12 18:36:09;;;;;;;20.75;8.57;;;;;;;7.32;52.13;101643.13;4928061;28;121137;-86
2022/02/12 18:38:38;;;;;;;22.58;8.13;;;;;;;7.14;51.83;101617.22;4910572;28;119484;-87
2022/02/12 18:41:12;;;;;;;18.02;8.10;;;;;;;7.24;52.14;101632.69;4923926;28;121407;-86
2022/02/12 18:43:57;;;;;;;19.98;8.65;;;;;;;7.06;52.57;101602.84;4947151;28;119238;-86
2022/02/12 18:46:37;;;;;;;15.93;7.82;;;;;;;6.98;52.65;101593.19;4945457;28;120450;-85
2022/02/12 18:49:09;;;;;;;25.45;9.05;;;;;;;7.07;52.80;101605.16;4912602;28;119699;-85
2022/02/12 18:52:07;;;;;;;20.10;8.55;;;;;;;6.91;51.64;101582.34;4927141;28;120291;-86
2022/02/12 18:54:43;;;;;;;27.42;8.77;;;;;;;7.20;52.14;101626.50;4929459;28;118468;-86
2022/02/12 18:57:16;;;;;;;19.20;8.68;;;;;;;7.18;51.95;101621.47;4928309;28;121281;-85
2022/02/12 19:00:16;;;;;;;22.13;8.32;;;;;;;7.14;51.89;101607.06;4933475;28;121844;-84
2022/02/12 19:02:46;;;;;;;24.70;8.23;;;;;;;6.99;51.55;101579.13;4951567;28;119363;-84
2022/02/12 19:05:20;;;;;;;21.30;8.65;;;;;;;7.04;52.97;101584.16;4931117;28;119587;-86
2022/02/12 19:08:04;;;;;;;22.40;8.23;;;;;;;6.63;52.04;101526.09;4931267;28;121689;-86
2022/02/12 19:10:51;;;;;;;17.63;8.02;;;;;;;6.62;51.77;101530.75;4918448;28;121564;-85
2022/02/12 19:13:22;;;;;;;21.58;8.13;;;;;;;7.02;52.17;101577.56;4916271;28;121621;-85